Time;durP1;ratioP1;P1;durP2;ratioP2;P2;SDS_P1;SDS_P2;PMS_P1;PMS_P2;Temp;Humidity;BMP_temperature;BMP_pressure;BME280_temperature;BME280_humidity;BME280_pressure;Samples;Min_cycle;Max_cycle;Signal;HPM_P1;HPM_P2
2022/12/05 00:01:42;;;;;;;5.60;3.42;;;;;;;;;;5057293;28;20136;-90
2022/12/05 00:04:09;;;;;;;5.50;3.42;;;;;;;;;;5057564;28;20063;-91
2022/12/05 00:06:36;;;;;;;4.95;3.25;;;;;;;;;;5056369;28;20021;-90
2022/12/05 00:09:03;;;;;;;6.90;3.05;;;;;;;;;;5056360;28;20040;-90
2022/12/05 00:14:33;;;;;;;5.40;3.38;;;;;;;;;;5057219;28;20036;-91
2022/12/05 00:16:59;;;;;;;6.22;3.53;;;;;;;;;;5057307;28;20025;-90
2022/12/05 00:19:25;;;;;;;4.60;2.88;;;;;;;;;;5056101;28;20071;-91
2022/12/05 00:21:51;;;;;;;6.03;3.47;;;;;;;;;;5057625;28;20075;-91
2022/12/05 00:24:18;;;;;;;4.47;3.10;;;;;;;;;;5057502;28;20307;-90
2022/12/05 00:27:03;;;;;;;6.18;3.70;;;;;;;;;;5056287;28;20116;-89
2022/12/05 00:29:29;;;;;;;5.28;3.40;;;;;;;;;;5056197;28;20033;-89
2022/12/05 00:31:55;;;;;;;5.72;3.22;;;;;;;;;;5057239;28;20108;-90
2022/12/05 00:34:21;;;;;;;6.13;3.22;;;;;;;;;;5057049;28;20043;-91
2022/12/05 00:36:47;;;;;;;6.35;3.47;;;;;;;;;;5056837;28;20252;-90
2022/12/05 00:39:14;;;;;;;5.30;3.60;;;;;;;;;;5056898;28;20107;-92
2022/12/05 00:41:41;;;;;;;5.68;3.85;;;;;;;;;;5056924;28;20477;-92
2022/12/05 00:44:07;;;;;;;5.03;3.67;;;;;;;;;;5056848;28;20059;-91
2022/12/05 00:46:34;;;;;;;6.50;3.90;;;;;;;;;;5058976;28;20021;-91
2022/12/05 00:49:00;;;;;;;6.30;4.10;;;;;;;;;;5060633;28;20053;-90
2022/12/05 00:51:31;;;;;;;5.78;3.55;;;;;;;;;;5059710;28;20032;-90
2022/12/05 00:53:58;;;;;;;4.68;3.22;;;;;;;;;;5060491;28;20025;-90
2022/12/05 00:56:43;;;;;;;7.78;3.25;;;;;;;;;;5059298;28;20155;-90
2022/12/05 00:59:13;;;;;;;5.45;3.33;;;;;;;;;;5059530;28;20415;-91
2022/12/05 01:01:41;;;;;;;7.35;3.55;;;;;;;;;;5060691;28;20059;-92
2022/12/05 01:04:09;;;;;;;5.60;3.83;;;;;;;;;;5059443;28;20426;-91
2022/12/05 01:06:35;;;;;;;7.88;3.60;;;;;;;;;;5059206;28;20425;-91
2022/12/05 01:09:02;;;;;;;5.93;3.90;;;;;;;;;;5059116;28;20052;-92
2022/12/05 01:11:28;;;;;;;7.95;3.95;;;;;;;;;;5060087;28;20060;-90
2022/12/05 01:13:55;;;;;;;6.15;3.50;;;;;;;;;;5059224;28;20029;-90
2022/12/05 01:16:23;;;;;;;4.32;2.92;;;;;;;;;;5059165;28;20021;-91
2022/12/05 01:18:49;;;;;;;4.47;3.05;;;;;;;;;;5059990;28;20057;-91
2022/12/05 01:21:15;;;;;;;5.97;3.80;;;;;;;;;;5059210;28;20025;-90
2022/12/05 01:23:41;;;;;;;5.50;3.13;;;;;;;;;;5060047;28;20021;-91
2022/12/05 01:26:09;;;;;;;5.18;3.63;;;;;;;;;;5058811;28;20135;-91
2022/12/05 01:28:35;;;;;;;4.78;3.55;;;;;;;;;;5059792;28;20415;-90
2022/12/05 01:31:06;;;;;;;5.35;3.47;;;;;;;;;;5059725;28;20066;-91
2022/12/05 01:33:32;;;;;;;6.95;4.43;;;;;;;;;;5059720;28;20410;-91
2022/12/05 01:35:58;;;;;;;6.70;3.88;;;;;;;;;;5058924;28;20414;-91
2022/12/05 01:38:24;;;;;;;7.43;3.80;;;;;;;;;;5058857;28;20059;-89
2022/12/05 01:40:58;;;;;;;6.53;3.40;;;;;;;;;;5059637;28;20460;-91
2022/12/05 01:43:24;;;;;;;4.72;3.15;;;;;;;;;;5059769;28;20471;-91
2022/12/05 01:45:50;;;;;;;4.43;2.97;;;;;;;;;;5059401;28;20049;-92
2022/12/05 01:48:25;;;;;;;4.90;3.38;;;;;;;;;;5059311;28;20052;-91
2022/12/05 01:50:52;;;;;;;4.85;2.78;;;;;;;;;;5058760;28;20033;-91
2022/12/05 01:53:18;;;;;;;5.78;3.20;;;;;;;;;;5059373;28;20039;-91
2022/12/05 01:58:48;;;;;;;4.43;3.05;;;;;;;;;;5059355;28;20082;-90
2022/12/05 02:01:16;;;;;;;5.50;3.35;;;;;;;;;;5059739;28;20021;-90
2022/12/05 02:03:43;;;;;;;5.88;3.83;;;;;;;;;;5059491;28;20017;-91
2022/12/05 02:06:10;;;;;;;5.47;3.55;;;;;;;;;;5059264;28;20021;-91
2022/12/05 02:08:36;;;;;;;6.35;3.78;;;;;;;;;;5059116;28;20021;-91
2022/12/05 02:14:12;;;;;;;5.65;3.60;;;;;;;;;;5059266;28;20044;-92
2022/12/05 02:16:38;;;;;;;5.82;3.95;;;;;;;;;;5058835;28;20024;-90
2022/12/05 02:19:23;;;;;;;5.63;3.55;;;;;;;;;;5057858;28;20120;-91
2022/12/05 02:21:55;;;;;;;5.60;3.65;;;;;;;;;;5058798;28;20021;-91
2022/12/05 02:24:33;;;;;;;4.72;3.35;;;;;;;;;;5057765;28;20116;-91
2022/12/05 02:30:02;;;;;;;6.95;3.40;;;;;;;;;;5058924;28;20075;-91
2022/12/05 02:32:35;;;;;;;4.80;3.17;;;;;;;;;;5058937;28;20017;-91
2022/12/05 02:35:20;;;;;;;6.57;3.15;;;;;;;;;;5058852;28;20021;-91
2022/12/05 02:37:54;;;;;;;5.10;2.83;;;;;;;;;;5057665;28;20066;-91
2022/12/05 02:40:26;;;;;;;4.13;2.72;;;;;;;;;;5058443;28;20128;-92
2022/12/05 02:43:16;;;;;;;4.20;2.78;;;;;;;;;;5058320;28;20021;-91
2022/12/05 02:45:43;;;;;;;4.50;2.72;;;;;;;;;;5058386;28;20025;-91
2022/12/05 02:48:11;;;;;;;4.18;2.85;;;;;;;;;;5057241;28;20041;-92
2022/12/05 02:50:38;;;;;;;3.42;2.15;;;;;;;;;;5057368;28;20070;-92
2022/12/05 02:53:08;;;;;;;6.40;2.90;;;;;;;;;;5058501;28;20035;-91
2022/12/05 02:55:35;;;;;;;3.75;2.63;;;;;;;;;;5058482;28;20025;-92
2022/12/05 02:58:03;;;;;;;3.83;2.40;;;;;;;;;;5057030;28;20025;-91
2022/12/05 03:00:29;;;;;;;3.90;2.53;;;;;;;;;;5057273;28;20049;-91
2022/12/05 03:02:57;;;;;;;5.35;2.38;;;;;;;;;;5057836;28;20032;-90
2022/12/05 03:05:36;;;;;;;3.67;2.60;;;;;;;;;;5056956;28;20025;-90
2022/12/05 03:08:02;;;;;;;4.03;2.50;;;;;;;;;;5057254;28;20024;-91
2022/12/05 03:10:31;;;;;;;5.18;2.90;;;;;;;;;;5057568;28;20029;-90
2022/12/05 03:12:59;;;;;;;6.03;2.63;;;;;;;;;;5057913;28;20021;-90
2022/12/05 03:15:29;;;;;;;4.97;2.60;;;;;;;;;;5057990;28;20017;-90
2022/12/05 03:18:03;;;;;;;5.30;2.80;;;;;;;;;;5057979;28;20430;-89
2022/12/05 03:20:33;;;;;;;4.45;2.85;;;;;;;;;;5057985;28;20314;-90
2022/12/05 03:23:12;;;;;;;6.05;2.90;;;;;;;;;;5056815;28;20350;-90
2022/12/05 03:31:44;;;;;;;3.78;2.70;;;;;;;;;;5057969;28;20035;-91
2022/12/05 03:34:20;;;;;;;7.38;3.80;;;;;;;;;;5056671;28;20029;-91
2022/12/05 03:36:49;;;;;;;5.13;2.75;;;;;;;;;;5057557;28;20021;-91
2022/12/05 03:39:21;;;;;;;5.03;3.00;;;;;;;;;;5057550;28;20021;-91
2022/12/05 03:41:57;;;;;;;4.60;3.22;;;;;;;;;;5057790;28;20029;-90
2022/12/05 03:44:25;;;;;;;5.13;2.70;;;;;;;;;;5056427;28;20415;-90
2022/12/05 03:47:03;;;;;;;4.63;2.65;;;;;;;;;;5057701;28;20021;-90
2022/12/05 03:49:37;;;;;;;5.63;2.70;;;;;;;;;;5056205;28;20182;-89
2022/12/05 03:52:09;;;;;;;4.50;2.92;;;;;;;;;;5056558;28;20029;-89
2022/12/05 03:54:40;;;;;;;4.07;2.80;;;;;;;;;;5056590;28;20024;-89
2022/12/05 03:57:20;;;;;;;4.28;3.00;;;;;;;;;;5057469;28;20036;-90
2022/12/05 03:59:48;;;;;;;4.63;3.10;;;;;;;;;;5057504;28;20461;-90
2022/12/05 04:02:16;;;;;;;5.13;3.40;;;;;;;;;;5056307;28;20028;-91
2022/12/05 04:04:52;;;;;;;4.72;3.00;;;;;;;;;;5056525;28;20013;-90
2022/12/05 04:07:20;;;;;;;5.03;3.40;;;;;;;;;;5057443;28;20027;-90
2022/12/05 04:09:51;;;;;;;4.85;3.22;;;;;;;;;;5056328;28;20025;-90
2022/12/05 04:15:26;;;;;;;5.72;3.78;;;;;;;;;;5057488;28;20032;-89
2022/12/05 04:17:56;;;;;;;5.18;3.03;;;;;;;;;;5057547;28;20029;-89
2022/12/05 04:23:08;;;;;;;5.20;3.03;;;;;;;;;;5061290;28;20115;-90
2022/12/05 04:26:06;;;;;;;5.07;2.90;;;;;;;;;;5061269;28;20021;-91
2022/12/05 04:28:32;;;;;;;5.28;2.67;;;;;;;;;;5003278;28;20029;-90
2022/12/05 04:31:01;;;;;;;5.30;3.17;;;;;;;;;;5019668;28;20410;-90
2022/12/05 04:33:30;;;;;;;4.10;2.88;;;;;;;;;;5019620;28;20103;-90
2022/12/05 04:36:02;;;;;;;5.40;2.97;;;;;;;;;;5003234;28;20030;-91
2022/12/05 04:38:50;;;;;;;3.85;2.70;;;;;;;;;;5019703;28;20042;-90
2022/12/05 04:41:18;;;;;;;4.90;2.95;;;;;;;;;;5019523;28;20114;-90
2022/12/05 04:43:46;;;;;;;6.55;2.88;;;;;;;;;;5002958;28;20025;-90
2022/12/05 04:46:14;;;;;;;4.15;2.50;;;;;;;;;;5019156;28;20030;-90
2022/12/05 04:48:42;;;;;;;4.43;2.78;;;;;;;;;;5019127;28;20201;-89
2022/12/05 04:51:09;;;;;;;5.55;3.20;;;;;;;;;;5019233;28;20038;-89
2022/12/05 04:53:35;;;;;;;5.00;3.08;;;;;;;;;;5019149;28;20414;-89
2022/12/05 04:56:03;;;;;;;5.50;3.40;;;;;;;;;;5019148;28;20464;-88
2022/12/05 04:58:29;;;;;;;7.05;3.53;;;;;;;;;;5019232;28;20034;-89
2022/12/05 05:00:58;;;;;;;7.72;5.07;;;;;;;;;;5019094;28;20030;-88
2022/12/05 05:03:29;;;;;;;9.80;5.25;;;;;;;;;;5023584;28;20030;-89
2022/12/05 05:05:56;;;;;;;9.50;5.07;;;;;;;;;;5040294;28;20030;-89
2022/12/05 05:08:26;;;;;;;6.95;4.22;;;;;;;;;;5040206;28;20029;-89
2022/12/05 05:11:04;;;;;;;10.55;4.60;;;;;;;;;;5040189;28;20026;-89
2022/12/05 05:13:30;;;;;;;6.60;3.78;;;;;;;;;;5040323;28;20033;-90
2022/12/05 05:15:56;;;;;;;6.68;4.20;;;;;;;;;;5040417;28;20140;-90
2022/12/05 05:18:22;;;;;;;6.30;4.00;;;;;;;;;;5039920;28;20079;-90
2022/12/05 05:20:48;;;;;;;12.45;6.03;;;;;;;;;;5059003;28;20037;-89
2022/12/05 05:23:14;;;;;;;13.77;6.22;;;;;;;;;;5059887;28;20399;-89
2022/12/05 05:25:40;;;;;;;14.68;6.72;;;;;;;;;;5060241;28;20047;-89
2022/12/05 05:28:06;;;;;;;12.98;6.32;;;;;;;;;;5060311;28;20462;-89
2022/12/05 05:30:32;;;;;;;14.32;6.43;;;;;;;;;;5059403;28;20052;-89
2022/12/05 05:33:01;;;;;;;7.63;3.83;;;;;;;;;;5058473;28;20037;-90
2022/12/05 05:35:27;;;;;;;8.05;4.53;;;;;;;;;;5059339;28;20028;-90
2022/12/05 05:37:53;;;;;;;10.73;4.30;;;;;;;;;;5058825;28;20415;-90
2022/12/05 05:40:19;;;;;;;7.88;4.85;;;;;;;;;;5059422;28;20108;-89
2022/12/05 05:42:46;;;;;;;6.63;3.97;;;;;;;;;;5058607;28;20048;-90
2022/12/05 05:45:13;;;;;;;7.55;4.20;;;;;;;;;;5059837;28;20029;-90
2022/12/05 05:47:40;;;;;;;9.48;4.95;;;;;;;;;;5059697;28;20159;-89
2022/12/05 05:50:06;;;;;;;8.40;4.78;;;;;;;;;;5059304;28;20557;-90
2022/12/05 05:52:33;;;;;;;8.88;5.10;;;;;;;;;;5058921;28;20025;-88
2022/12/05 05:54:59;;;;;;;9.60;5.40;;;;;;;;;;5058498;28;20048;-90
2022/12/05 05:57:44;;;;;;;17.00;6.55;;;;;;;;;;5059571;28;20028;-89
2022/12/05 06:00:10;;;;;;;12.25;6.20;;;;;;;;;;5058193;28;20079;-88
2022/12/05 06:02:36;;;;;;;34.00;8.40;;;;;;;;;;5059145;28;20028;-89
2022/12/05 06:05:02;;;;;;;27.38;7.38;;;;;;;;;;5059358;28;20092;-89
2022/12/05 06:07:29;;;;;;;27.42;8.00;;;;;;;;;;5059436;28;20059;-89
2022/12/05 06:09:55;;;;;;;22.58;6.72;;;;;;;;;;5059030;28;20025;-89
2022/12/05 06:12:21;;;;;;;22.90;6.65;;;;;;;;;;5059087;28;20029;-89
2022/12/05 06:14:47;;;;;;;13.80;5.88;;;;;;;;;;5059291;28;20048;-89
2022/12/05 06:17:14;;;;;;;15.98;6.53;;;;;;;;;;5058799;28;20055;-90
2022/12/05 06:19:40;;;;;;;18.33;7.63;;;;;;;;;;5058376;28;20033;-90
2022/12/05 06:22:06;;;;;;;11.65;5.60;;;;;;;;;;5058691;28;20024;-89
2022/12/05 06:24:32;;;;;;;12.38;6.05;;;;;;;;;;5040248;28;20036;-90
2022/12/05 06:27:17;;;;;;;8.82;5.85;;;;;;;;;;5038793;28;20083;-89
2022/12/05 06:29:43;;;;;;;12.20;5.07;;;;;;;;;;5037815;28;20029;-90
2022/12/05 06:32:09;;;;;;;9.80;4.97;;;;;;;;;;5038666;28;20025;-89
2022/12/05 06:34:35;;;;;;;8.45;4.57;;;;;;;;;;5038824;28;20048;-89
2022/12/05 06:37:01;;;;;;;14.05;7.22;;;;;;;;;;5037916;28;20025;-90
2022/12/05 06:39:28;;;;;;;13.05;6.00;;;;;;;;;;5038789;28;20508;-90
2022/12/05 06:42:00;;;;;;;9.18;5.07;;;;;;;;;;5038503;28;20052;-91
2022/12/05 06:44:27;;;;;;;10.07;4.80;;;;;;;;;;5054299;28;20029;-88
2022/12/05 06:46:53;;;;;;;8.23;4.68;;;;;;;;;;5070837;28;20445;-90
2022/12/05 06:49:20;;;;;;;11.13;5.45;;;;;;;;;;5078212;28;20052;-89
2022/12/05 06:51:46;;;;;;;11.40;5.63;;;;;;;;;;5078477;28;20354;-90
2022/12/05 06:54:12;;;;;;;17.48;7.10;;;;;;;;;;5073282;28;20338;-90
2022/12/05 06:56:38;;;;;;;14.73;6.93;;;;;;;;;;5057263;28;20029;-91
2022/12/05 07:08:43;;;;;;;7.53;4.47;;;;;;;;;;5058408;28;20120;-91
2022/12/05 07:11:10;;;;;;;11.27;5.57;;;;;;;;;;5057835;28;20021;-91
2022/12/05 07:13:36;;;;;;;11.07;5.60;;;;;;;;;;5058264;28;20037;-91
2022/12/05 07:16:03;;;;;;;17.63;7.32;;;;;;;;;;5056726;28;20029;-91
2022/12/05 07:18:29;;;;;;;18.65;8.05;;;;;;;;;;5057440;28;20074;-95
2022/12/05 07:20:56;;;;;;;19.95;11.02;;;;;;;;;;5056591;28;20116;-92
2022/12/05 07:23:22;;;;;;;15.70;7.53;;;;;;;;;;5057710;28;20323;-94
2022/12/05 07:25:48;;;;;;;12.82;6.93;;;;;;;;;;5057668;28;20029;-92
2022/12/05 07:31:22;;;;;;;13.18;6.28;;;;;;;;;;5057925;28;20039;-92
2022/12/05 07:33:48;;;;;;;14.20;7.60;;;;;;;;;;5057500;28;20033;-92
2022/12/05 07:36:17;;;;;;;16.73;6.25;;;;;;;;;;5057631;28;20160;-92
2022/12/05 07:38:43;;;;;;;15.27;7.10;;;;;;;;;;5056314;28;20025;-92
2022/12/05 07:41:11;;;;;;;27.33;10.43;;;;;;;;;;5056488;28;20311;-91
2022/12/05 07:44:14;;;;;;;30.33;11.43;;;;;;;;;;5056583;28;20033;-91
2022/12/05 07:46:40;;;;;;;61.60;24.70;;;;;;;;;;5057168;28;20045;-89
2022/12/05 07:49:07;;;;;;;31.55;13.40;;;;;;;;;;5056270;28;20049;-91
2022/12/05 07:51:34;;;;;;;26.83;13.43;;;;;;;;;;5056590;28;20331;-91
2022/12/05 07:54:00;;;;;;;41.58;20.77;;;;;;;;;;5057684;28;20025;-91
2022/12/05 07:56:26;;;;;;;59.90;27.83;;;;;;;;;;5061047;28;20029;-92
2022/12/05 07:58:53;;;;;;;29.75;15.70;;;;;;;;;;5060442;28;20028;-90
2022/12/05 08:01:20;;;;;;;30.38;16.83;;;;;;;;;;5061706;28;20058;-91
2022/12/05 08:03:46;;;;;;;20.58;11.95;;;;;;;;;;5061834;28;20033;-90
2022/12/05 08:06:14;;;;;;;13.30;8.38;;;;;;;;;;5060404;28;20045;-90
2022/12/05 08:08:40;;;;;;;11.60;7.18;;;;;;;;;;5061448;28;20025;-90
2022/12/05 08:11:08;;;;;;;8.63;5.45;;;;;;;;;;5061395;28;20394;-89
2022/12/05 08:13:35;;;;;;;10.73;7.70;;;;;;;;;;5061137;28;20029;-90
2022/12/05 08:16:02;;;;;;;13.52;8.77;;;;;;;;;;5061534;28;20036;-89
2022/12/05 08:18:28;;;;;;;25.23;13.20;;;;;;;;;;5060118;28;20048;-89
2022/12/05 08:20:54;;;;;;;28.52;15.10;;;;;;;;;;5060810;28;20036;-89
2022/12/05 08:23:20;;;;;;;20.65;11.00;;;;;;;;;;5060597;28;20021;-89
2022/12/05 08:25:46;;;;;;;17.20;9.85;;;;;;;;;;5061281;28;20025;-89
2022/12/05 08:28:12;;;;;;;16.33;8.38;;;;;;;;;;5059912;28;20039;-89
2022/12/05 08:30:38;;;;;;;35.17;11.75;;;;;;;;;;5061558;28;20143;-91
2022/12/05 08:33:04;;;;;;;20.92;8.50;;;;;;;;;;5061278;28;20014;-90
2022/12/05 08:35:30;;;;;;;19.30;8.02;;;;;;;;;;5059872;28;20033;-90
2022/12/05 08:37:56;;;;;;;12.20;7.43;;;;;;;;;;5059874;28;20017;-90
2022/12/05 08:40:22;;;;;;;14.40;8.05;;;;;;;;;;5059766;28;20051;-91
2022/12/05 08:42:48;;;;;;;16.92;9.13;;;;;;;;;;5059886;28;20358;-93
2022/12/05 08:45:14;;;;;;;17.27;7.68;;;;;;;;;;5059579;28;20053;-91
2022/12/05 08:47:40;;;;;;;16.35;8.10;;;;;;;;;;5059569;28;20411;-93
2022/12/05 08:50:07;;;;;;;14.02;7.82;;;;;;;;;;5059602;28;20063;-89
2022/12/05 08:52:33;;;;;;;8.93;6.10;;;;;;;;;;5059838;28;20035;-89
2022/12/05 08:54:59;;;;;;;12.07;7.30;;;;;;;;;;5060555;28;20020;-88
2022/12/05 08:57:25;;;;;;;14.05;7.65;;;;;;;;;;5060340;28;20021;-87
2022/12/05 08:59:51;;;;;;;16.27;8.07;;;;;;;;;;5057686;28;20449;-91
2022/12/05 09:02:17;;;;;;;13.45;6.88;;;;;;;;;;5042889;28;20319;-90
2022/12/05 09:04:43;;;;;;;10.20;5.93;;;;;;;;;;5060212;28;20029;-89
2022/12/05 09:07:09;;;;;;;15.90;8.98;;;;;;;;;;5058386;28;20019;-90
2022/12/05 09:09:35;;;;;;;9.95;6.30;;;;;;;;;;5059094;28;20112;-88
2022/12/05 09:12:02;;;;;;;13.60;8.55;;;;;;;;;;5060145;28;20316;-89
2022/12/05 09:14:31;;;;;;;13.32;8.65;;;;;;;;;;5059008;28;20128;-89
2022/12/05 09:16:58;;;;;;;21.30;9.07;;;;;;;;;;5060502;28;20029;-90
2022/12/05 09:19:26;;;;;;;21.25;8.85;;;;;;;;;;5058433;28;20151;-88
2022/12/05 09:21:52;;;;;;;18.17;8.85;;;;;;;;;;5048001;28;20470;-89
2022/12/05 09:24:18;;;;;;;19.05;9.10;;;;;;;;;;5039970;28;20025;-89
2022/12/05 09:26:45;;;;;;;14.75;9.32;;;;;;;;;;5050801;28;20021;-89
2022/12/05 09:32:15;;;;;;;22.63;10.75;;;;;;;;;;5057804;28;20067;-89
2022/12/05 09:34:41;;;;;;;30.25;11.00;;;;;;;;;;5046960;28;20032;-88
2022/12/05 09:37:07;;;;;;;22.27;11.63;;;;;;;;;;5059913;28;20040;-88
2022/12/05 09:39:34;;;;;;;18.40;10.02;;;;;;;;;;5059769;28;20036;-90
2022/12/05 09:42:19;;;;;;;15.18;8.63;;;;;;;;;;5056885;28;20025;-88
2022/12/05 09:44:48;;;;;;;22.17;11.10;;;;;;;;;;5057454;28;20067;-90
2022/12/05 09:47:14;;;;;;;19.02;9.45;;;;;;;;;;5043710;28;20021;-88
2022/12/05 09:49:44;;;;;;;14.68;8.23;;;;;;;;;;5055144;28;20435;-87
2022/12/05 09:52:16;;;;;;;20.70;10.23;;;;;;;;;;5039848;28;20049;-89
2022/12/05 09:54:42;;;;;;;19.05;9.32;;;;;;;;;;5058784;28;20031;-89
2022/12/05 09:57:09;;;;;;;15.85;8.43;;;;;;;;;;5058590;28;20517;-88
2022/12/05 09:59:35;;;;;;;14.00;8.65;;;;;;;;;;5067357;28;20033;-89
2022/12/05 10:02:21;;;;;;;16.08;7.28;;;;;;;;;;5048649;28;20095;-88
2022/12/05 10:04:59;;;;;;;44.38;11.68;;;;;;;;;;5039490;28;20022;-89
2022/12/05 10:07:40;;;;;;;32.20;12.20;;;;;;;;;;5065043;28;20058;-90
2022/12/05 10:10:16;;;;;;;23.30;10.70;;;;;;;;;;5060418;28;20028;-88
2022/12/05 10:13:08;;;;;;;27.00;8.75;;;;;;;;;;5065140;28;20051;-89
2022/12/05 10:15:40;;;;;;;20.63;9.50;;;;;;;;;;5067980;28;20036;-87
2022/12/05 10:18:09;;;;;;;19.40;8.15;;;;;;;;;;5054994;28;20323;-87
2022/12/05 10:20:47;;;;;;;18.52;8.25;;;;;;;;;;5075902;28;20064;-89
2022/12/05 10:23:20;;;;;;;23.30;9.35;;;;;;;;;;5084531;28;20037;-89
2022/12/05 10:25:48;;;;;;;27.75;10.10;;;;;;;;;;5037924;28;20075;-88
2022/12/05 10:28:17;;;;;;;21.08;8.82;;;;;;;;;;5037832;28;20021;-88
2022/12/05 10:30:45;;;;;;;28.63;9.93;;;;;;;;;;5037841;28;20072;-89
2022/12/05 10:33:18;;;;;;;16.80;7.57;;;;;;;;;;5039003;28;20057;-90
2022/12/05 10:35:44;;;;;;;20.08;8.65;;;;;;;;;;5048144;28;20029;-90
2022/12/05 10:38:13;;;;;;;29.42;9.70;;;;;;;;;;5058929;28;20024;-88
2022/12/05 10:40:41;;;;;;;23.15;10.05;;;;;;;;;;5061344;28;20020;-88
2022/12/05 10:43:07;;;;;;;37.95;8.77;;;;;;;;;;5065657;28;20035;-88
2022/12/05 10:45:36;;;;;;;29.50;9.13;;;;;;;;;;5056036;28;20051;-88
2022/12/05 10:48:02;;;;;;;49.92;9.52;;;;;;;;;;5061574;28;20017;-88
2022/12/05 10:50:30;;;;;;;31.48;8.55;;;;;;;;;;5057891;28;20041;-89
2022/12/05 10:52:57;;;;;;;25.58;8.30;;;;;;;;;;5063847;28;20037;-88
2022/12/05 10:55:26;;;;;;;17.50;7.15;;;;;;;;;;5066513;28;20063;-88
2022/12/05 10:58:07;;;;;;;18.05;9.00;;;;;;;;;;5062263;28;20048;-87
2022/12/05 11:00:33;;;;;;;18.77;8.57;;;;;;;;;;5088886;28;20025;-87
2022/12/05 11:03:00;;;;;;;17.92;10.32;;;;;;;;;;5067706;28;20028;-87
2022/12/05 11:05:28;;;;;;;15.32;8.73;;;;;;;;;;5056777;28;20029;-87
2022/12/05 11:07:54;;;;;;;14.18;7.90;;;;;;;;;;5060247;28;20103;-87
2022/12/05 11:10:29;;;;;;;25.00;14.25;;;;;;;;;;5053969;28;20040;-86
2022/12/05 11:12:57;;;;;;;36.42;17.13;;;;;;;;;;5056769;28;20025;-86
2022/12/05 11:15:24;;;;;;;28.58;17.92;;;;;;;;;;5057036;28;20033;-87
2022/12/05 11:17:51;;;;;;;22.67;12.90;;;;;;;;;;5071768;28;20028;-86
2022/12/05 11:20:17;;;;;;;16.48;10.85;;;;;;;;;;5066301;28;20029;-86
2022/12/05 11:22:44;;;;;;;18.15;12.30;;;;;;;;;;5074884;28;20032;-87
2022/12/05 11:25:29;;;;;;;20.45;11.50;;;;;;;;;;5068965;28;20017;-87
2022/12/05 11:31:18;;;;;;;34.53;17.95;;;;;;;;;;5037657;28;20032;-87
2022/12/05 11:33:58;;;;;;;24.13;13.05;;;;;;;;;;5039142;28;20029;-87
2022/12/05 11:36:31;;;;;;;21.20;12.30;;;;;;;;;;5055996;28;20046;-85
2022/12/05 11:38:56;;;;;;;;;;;;;;;;;;5065944;28;20028;-86
2022/12/05 11:41:25;;;;;;;19.42;11.98;;;;;;;;;;5060308;28;19915;-87
2022/12/05 11:44:10;;;;;;;16.55;9.90;;;;;;;;;;5056784;28;20480;-88
2022/12/05 11:46:36;;;;;;;20.60;12.80;;;;;;;;;;5057731;28;20035;-87
2022/12/05 11:49:21;;;;;;;30.65;16.52;;;;;;;;;;5056208;28;20057;-87
2022/12/05 11:51:55;;;;;;;22.05;11.50;;;;;;;;;;5037329;28;20050;-86
2022/12/05 11:54:21;;;;;;;;;;;;;;;;;;5038344;28;20415;-85
2022/12/05 11:56:53;;;;;;;12.57;8.05;;;;;;;;;;5046754;28;19911;-83
2022/12/05 11:59:25;;;;;;;15.77;9.45;;;;;;;;;;5056703;28;20119;-82
2022/12/05 12:01:51;;;;;;;;;;;;;;;;;;5055285;28;20051;-83
2022/12/05 12:04:35;;;;;;;23.60;12.60;;;;;;;;;;5056913;28;19909;-84
2022/12/05 12:07:04;;;;;;;17.60;11.02;;;;;;;;;;5057203;28;20100;-85
2022/12/05 12:09:33;;;;;;;17.98;9.60;;;;;;;;;;5056140;28;20063;-84
2022/12/05 12:12:07;;;;;;;19.35;11.05;;;;;;;;;;5057218;28;20100;-83
2022/12/05 12:14:51;;;;;;;26.38;14.32;;;;;;;;;;5056101;28;20021;-83
2022/12/05 12:17:43;;;;;;;36.50;15.48;;;;;;;;;;5057062;28;20116;-84
2022/12/05 12:20:15;;;;;;;42.60;20.35;;;;;;;;;;5054057;28;20041;-84
2022/12/05 12:22:41;;;;;;;41.00;17.60;;;;;;;;;;5057105;28;20426;-84
2022/12/05 12:25:15;;;;;;;47.20;22.50;;;;;;;;;;5055934;28;20033;-84
2022/12/05 12:27:47;;;;;;;26.23;12.45;;;;;;;;;;5055860;28;20331;-84
2022/12/05 12:30:20;;;;;;;18.63;10.13;;;;;;;;;;5056891;28;20525;-83
2022/12/05 12:32:49;;;;;;;29.95;15.55;;;;;;;;;;5056876;28;20040;-84
2022/12/05 12:35:25;;;;;;;59.00;28.08;;;;;;;;;;5056934;28;20021;-83
2022/12/05 12:37:57;;;;;;;26.02;14.13;;;;;;;;;;5055813;28;20035;-87
2022/12/05 12:40:23;;;;;;;;;;;;;;;;;;5056977;28;20033;-89
2022/12/05 12:43:14;;;;;;;27.75;13.32;;;;;;;;;;5055480;28;20447;-88
2022/12/05 12:46:03;;;;;;;23.73;13.82;;;;;;;;;;5052969;28;20043;-88
2022/12/05 12:48:29;;;;;;;18.70;10.32;;;;;;;;;;4963932;28;20038;-87
2022/12/05 12:50:56;;;;;;;17.27;8.68;;;;;;;;;;4991418;28;20452;-89
2022/12/05 12:53:22;;;;;;;14.93;8.55;;;;;;;;;;4987608;28;20051;-89
2022/12/05 12:55:48;;;;;;;19.15;10.50;;;;;;;;;;4980088;28;20034;-89
2022/12/05 12:58:26;;;;;;;16.13;9.95;;;;;;;;;;4982929;28;20022;-88
2022/12/05 13:01:04;;;;;;;18.30;10.20;;;;;;;;;;4984938;28;20077;-88
2022/12/05 13:03:35;;;;;;;21.80;12.25;;;;;;;;;;4960828;28;20038;-89
2022/12/05 13:06:08;;;;;;;20.52;10.68;;;;;;;;;;4969428;28;20039;-89
2022/12/05 13:08:37;;;;;;;15.98;8.68;;;;;;;;;;4964232;28;20027;-90
2022/12/05 13:11:05;;;;;;;20.92;9.70;;;;;;;;;;4966835;28;20022;-90
2022/12/05 13:13:35;;;;;;;20.48;11.82;;;;;;;;;;4986764;28;20315;-90
2022/12/05 13:16:05;;;;;;;17.30;10.20;;;;;;;;;;4985737;28;20124;-90
2022/12/05 13:18:31;;;;;;;17.63;10.95;;;;;;;;;;4987346;28;20472;-89
2022/12/05 13:20:58;;;;;;;19.38;10.60;;;;;;;;;;4985371;28;20039;-90
2022/12/05 13:23:29;;;;;;;18.55;9.60;;;;;;;;;;4965864;28;20019;-89
2022/12/05 13:25:56;;;;;;;20.33;11.75;;;;;;;;;;5049327;28;20039;-89
2022/12/05 13:28:27;;;;;;;15.10;9.20;;;;;;;;;;5078673;28;20103;-90
2022/12/05 13:31:00;;;;;;;20.80;8.98;;;;;;;;;;5084707;28;20112;-88
2022/12/05 13:33:28;;;;;;;15.07;9.27;;;;;;;;;;5069343;28;20025;-89
2022/12/05 13:44:53;;;;;;;14.75;8.88;;;;;;;;;;5050454;28;20469;-92
2022/12/05 13:47:28;;;;;;;15.45;8.27;;;;;;;;;;4982277;28;20042;-90
2022/12/05 13:50:03;;;;;;;14.68;8.32;;;;;;;;;;4998392;28;20054;-82
2022/12/05 13:52:31;;;;;;;13.48;7.40;;;;;;;;;;4997277;28;20093;-82
2022/12/05 13:55:29;;;;;;;14.18;7.70;;;;;;;;;;4997625;28;20026;-82
2022/12/05 13:57:58;;;;;;;15.75;8.50;;;;;;;;;;4958878;29;20035;-82
2022/12/05 14:00:25;;;;;;;14.27;7.50;;;;;;;;;;4958917;29;20051;-82
2022/12/05 14:02:51;;;;;;;19.75;9.90;;;;;;;;;;4959104;29;20102;-82
2022/12/05 14:05:20;;;;;;;12.27;6.82;;;;;;;;;;4958938;29;20032;-82
2022/12/05 14:07:46;;;;;;;15.10;7.53;;;;;;;;;;4959071;29;20074;-82
2022/12/05 14:10:17;;;;;;;29.17;9.55;;;;;;;;;;4958823;29;20043;-82
2022/12/05 14:12:48;;;;;;;43.15;10.23;;;;;;;;;;4958552;29;20083;-82
2022/12/05 14:15:27;;;;;;;26.73;9.23;;;;;;;;;;4958673;29;20035;-82
2022/12/05 14:18:05;;;;;;;21.83;7.82;;;;;;;;;;4958713;29;20126;-82
2022/12/05 14:20:31;;;;;;;15.90;7.95;;;;;;;;;;4955766;29;20046;-83
2022/12/05 14:23:16;;;;;;;14.60;7.50;;;;;;;;;;4951377;28;20045;-82
2022/12/05 14:25:57;;;;;;;12.65;7.43;;;;;;;;;;4997460;28;20030;-83
2022/12/05 14:28:35;;;;;;;16.00;8.88;;;;;;;;;;4980985;28;20029;-83
2022/12/05 14:31:01;;;;;;;15.98;9.77;;;;;;;;;;4980540;28;20548;-83
2022/12/05 14:33:27;;;;;;;43.15;20.48;;;;;;;;;;5006977;28;20025;-83
2022/12/05 14:35:53;;;;;;;62.47;26.42;;;;;;;;;;5037259;28;20014;-83
2022/12/05 14:38:33;;;;;;;43.22;19.02;;;;;;;;;;5038475;28;20312;-84
2022/12/05 14:41:17;;;;;;;45.20;19.95;;;;;;;;;;5038469;28;20028;-83
2022/12/05 14:43:43;;;;;;;51.78;22.55;;;;;;;;;;5038235;28;20360;-84
2022/12/05 14:46:26;;;;;;;57.72;21.52;;;;;;;;;;5038106;28;20328;-82
2022/12/05 14:48:54;;;;;;;26.95;14.50;;;;;;;;;;5038053;28;20041;-83
2022/12/05 14:51:44;;;;;;;23.00;13.15;;;;;;;;;;5038093;28;20030;-83
2022/12/05 14:54:13;;;;;;;23.67;11.38;;;;;;;;;;4977511;28;20035;-83
2022/12/05 14:56:42;;;;;;;21.05;10.27;;;;;;;;;;4977364;28;20039;-83
2022/12/05 14:59:23;;;;;;;18.45;10.63;;;;;;;;;;4977422;28;20041;-83
2022/12/05 15:01:50;;;;;;;20.20;11.23;;;;;;;;;;4961353;28;20038;-83
2022/12/05 15:04:16;;;;;;;19.52;11.38;;;;;;;;;;4961047;28;20145;-83
2022/12/05 15:06:47;;;;;;;23.27;10.65;;;;;;;;;;4977136;28;20050;-83
2022/12/05 15:09:33;;;;;;;17.77;9.45;;;;;;;;;;4977352;28;20127;-83
2022/12/05 15:12:00;;;;;;;19.35;9.57;;;;;;;;;;4977353;28;20333;-83
2022/12/05 15:14:28;;;;;;;15.40;8.88;;;;;;;;;;4960986;28;20035;-83
2022/12/05 15:16:54;;;;;;;19.80;10.55;;;;;;;;;;4961059;28;20461;-83
2022/12/05 15:19:30;;;;;;;21.67;10.05;;;;;;;;;;4960791;28;20381;-82
2022/12/05 15:22:01;;;;;;;24.20;12.73;;;;;;;;;;4977004;28;20026;-83
2022/12/05 15:24:27;;;;;;;36.85;14.98;;;;;;;;;;4977019;28;20039;-83
2022/12/05 15:26:54;;;;;;;38.25;16.48;;;;;;;;;;4977055;28;20030;-83
2022/12/05 15:29:24;;;;;;;39.65;18.23;;;;;;;;;;4960674;28;20117;-83
2022/12/05 15:31:53;;;;;;;39.60;18.10;;;;;;;;;;5020320;28;20618;-83
2022/12/05 15:34:34;;;;;;;44.72;18.42;;;;;;;;;;5036229;28;20037;-83
2022/12/05 15:37:12;;;;;;;38.72;17.80;;;;;;;;;;5036400;28;20408;-82
2022/12/05 15:39:57;;;;;;;32.70;15.68;;;;;;;;;;5037389;28;20140;-83
2022/12/05 15:42:25;;;;;;;32.58;16.58;;;;;;;;;;5037316;28;20022;-83